createdAt,value
2022-12-19T02:36:00.257Z,-0.60
2022-12-19T02:56:17.937Z,-0.80
2022-12-19T02:59:08.703Z,-0.80
2022-12-19T03:01:47.482Z,-0.80
2022-12-19T03:04:52.297Z,-0.80
2022-12-19T03:07:29.471Z,-0.90
2022-12-19T03:10:15.619Z,-0.90
2022-12-19T03:12:51.130Z,-0.80
2022-12-19T03:15:19.724Z,-0.80
2022-12-19T03:17:46.992Z,-0.80
2022-12-19T03:20:28.843Z,-0.90
2022-12-19T03:22:55.425Z,-0.80
2022-12-19T03:25:24.085Z,-0.80
2022-12-19T03:27:51.831Z,-0.80
2022-12-19T03:30:18.737Z,-0.70
2022-12-19T03:32:47.689Z,-0.80
2022-12-19T03:35:19.157Z,-0.70
2022-12-19T03:37:47.683Z,-0.70
2022-12-19T03:40:18.083Z,-0.70
2022-12-19T03:43:16.846Z,-0.70
2022-12-19T03:46:02.434Z,-0.70
2022-12-19T03:48:38.974Z,-0.60
2022-12-19T03:51:29.504Z,-0.60
2022-12-19T03:54:02.006Z,-0.60
2022-12-19T03:56:45.727Z,-0.40
2022-12-19T03:59:45.604Z,-0.50
2022-12-19T04:02:15.039Z,-0.50
2022-12-19T04:04:46.075Z,-0.40
2022-12-19T04:07:14.893Z,-0.50
2022-12-19T04:09:43.338Z,-0.60
2022-12-19T04:12:18.269Z,-0.40
2022-12-19T04:14:45.510Z,-0.40
2022-12-19T04:17:30.900Z,-0.50
2022-12-19T04:20:02.413Z,-0.50
2022-12-19T04:22:55.307Z,-0.40
2022-12-19T04:25:29.731Z,-0.30
2022-12-19T04:28:01.490Z,-0.40
2022-12-19T04:30:28.198Z,-0.30
2022-12-19T04:32:56.268Z,-0.40
2022-12-19T04:35:23.229Z,-0.40
2022-12-19T04:37:49.950Z,-0.40
2022-12-19T04:40:16.734Z,-0.40
2022-12-19T04:42:43.334Z,-0.30
2022-12-19T04:45:10.365Z,-0.30
2022-12-19T04:47:37.344Z,-0.20
2022-12-19T04:50:09.880Z,-0.30
2022-12-19T04:52:36.533Z,-0.20
2022-12-19T04:55:03.222Z,-0.20
2022-12-19T04:57:32.972Z,-0.20
2022-12-19T04:59:59.636Z,-0.20
2022-12-19T05:02:26.496Z,-0.20
2022-12-19T05:04:53.271Z,-0.20
2022-12-19T05:07:19.914Z,-0.20
2022-12-19T05:09:46.620Z,-0.10
2022-12-19T05:12:13.500Z,0.00
2022-12-19T05:14:40.125Z,-0.10
2022-12-19T05:17:06.770Z,-0.30
2022-12-19T05:19:33.460Z,0.00
2022-12-19T05:22:02.478Z,-0.10
2022-12-19T05:24:43.717Z,0.00
2022-12-19T05:27:10.372Z,0.10
2022-12-19T05:29:37.005Z,0.50
2022-12-19T05:32:03.694Z,0.00
2022-12-19T05:34:30.406Z,0.00
2022-12-19T05:36:57.489Z,0.10
2022-12-19T05:39:24.980Z,0.30
2022-12-19T05:41:51.612Z,0.30
2022-12-19T05:44:18.257Z,0.10
2022-12-19T05:46:45.016Z,0.20
2022-12-19T05:49:11.730Z,0.20
2022-12-19T05:51:38.461Z,0.20
2022-12-19T05:54:05.258Z,0.20
2022-12-19T05:56:31.891Z,0.30
2022-12-19T05:58:58.534Z,0.20
2022-12-19T06:01:32.329Z,0.20
2022-12-19T06:03:59.059Z,0.30
2022-12-19T06:06:26.873Z,0.30
2022-12-19T06:08:58.598Z,0.20
2022-12-19T06:11:26.762Z,0.30
2022-12-19T06:13:53.943Z,0.30
2022-12-19T06:16:22.196Z,0.20
2022-12-19T06:18:48.885Z,0.30
2022-12-19T06:21:21.712Z,0.30
2022-12-19T06:23:48.799Z,0.30
2022-12-19T06:26:19.941Z,0.30
2022-12-19T06:28:51.739Z,0.30
2022-12-19T06:31:25.683Z,0.30
2022-12-19T06:33:52.895Z,0.30
2022-12-19T06:36:27.549Z,0.30
2022-12-19T06:38:55.917Z,0.40
2022-12-19T11:42:46.195Z,1.90
2022-12-19T11:45:40.755Z,1.90
2022-12-19T11:48:11.885Z,1.90
2022-12-19T11:50:58.439Z,1.90
2022-12-19T11:53:53.211Z,1.90
2022-12-19T11:56:25.012Z,1.90
2022-12-19T11:58:57.712Z,1.80
2022-12-19T12:01:30.642Z,2.20
2022-12-19T12:04:25.255Z,1.90
2022-12-19T12:06:57.880Z,2.20
2022-12-19T12:12:19.202Z,1.80
2022-12-19T12:22:51.730Z,1.80
2022-12-19T12:30:21.621Z,1.80
2022-12-19T12:30:28.336Z,1.80
2022-12-19T12:31:16.210Z,1.90
2022-12-19T12:31:45.125Z,1.90
2022-12-19T12:31:52.920Z,1.80
2022-12-19T12:35:33.278Z,1.90
2022-12-19T12:38:23.660Z,2.00
2022-12-19T12:41:08.019Z,2.00
2022-12-19T12:43:47.588Z,1.90
2022-12-19T12:46:26.116Z,2.00
2022-12-19T12:49:01.912Z,1.90
2022-12-19T12:51:31.538Z,2.00
2022-12-19T12:54:07.610Z,2.00
2022-12-19T12:56:35.768Z,2.00
2022-12-19T12:59:06.489Z,2.00
2022-12-19T13:01:40.138Z,2.00
2022-12-19T13:04:13.053Z,2.00
2022-12-19T13:06:42.958Z,2.10
2022-12-19T13:09:09.519Z,2.10
2022-12-19T13:11:58.323Z,2.10
2022-12-19T13:14:40.470Z,2.10
2022-12-19T13:17:09.304Z,2.20
2022-12-19T13:19:52.515Z,2.10
2022-12-19T13:22:22.405Z,2.20
2022-12-19T13:24:53.050Z,2.20
2022-12-19T13:27:19.639Z,2.20
2022-12-19T13:30:04.454Z,2.30
2022-12-19T13:32:54.044Z,2.20
2022-12-19T13:37:09.082Z,2.40
2022-12-19T13:39:56.268Z,2.20
2022-12-19T13:41:46.483Z,2.30
2022-12-19T13:44:13.535Z,2.20
2022-12-19T13:46:43.241Z,2.20
2022-12-19T13:49:35.060Z,2.30
2022-12-19T13:52:04.273Z,2.20
2022-12-19T13:54:44.476Z,2.10
2022-12-19T13:57:31.515Z,2.20
2022-12-19T14:00:02.907Z,2.30
2022-12-19T14:02:45.073Z,2.20
2022-12-19T14:06:15.253Z,2.20
2022-12-19T14:08:25.344Z,2.20
2022-12-19T14:11:41.016Z,2.20
2022-12-19T14:14:19.124Z,2.20
2022-12-19T14:16:48.616Z,2.30
2022-12-19T14:19:27.701Z,2.30
2022-12-19T14:22:06.141Z,2.20
2022-12-19T14:24:39.412Z,2.30
2022-12-19T14:28:18.783Z,2.20
2022-12-19T14:30:28.367Z,2.30
2022-12-19T14:33:39.718Z,2.20
2022-12-19T14:36:12.071Z,2.20
2022-12-19T14:39:22.535Z,2.20
2022-12-19T14:41:47.144Z,2.10
2022-12-19T14:52:26.228Z,2.20
2022-12-19T14:52:44.956Z,2.10
2022-12-19T14:54:16.866Z,2.10
2022-12-19T14:54:41.913Z,2.00
2022-12-19T14:56:16.727Z,2.10
2022-12-19T14:58:53.399Z,2.00
2022-12-19T15:01:25.906Z,2.00
2022-12-19T15:04:17.237Z,2.00
2022-12-19T15:07:12.302Z,1.90
2022-12-19T15:11:03.348Z,1.80
2022-12-19T15:14:49.678Z,1.90
2022-12-19T15:16:04.930Z,1.80
2022-12-19T15:18:41.596Z,1.70
2022-12-19T15:21:12.648Z,1.60
2022-12-19T15:23:39.705Z,1.60
2022-12-19T15:26:17.475Z,1.40
2022-12-19T15:28:51.137Z,1.40
2022-12-19T15:31:39.713Z,1.40
2022-12-19T15:34:40.121Z,1.40
2022-12-19T15:37:11.168Z,1.40
2022-12-19T15:39:38.283Z,1.40
2022-12-19T15:42:22.589Z,1.20
2022-12-19T15:44:51.209Z,1.30
2022-12-19T15:47:32.726Z,1.20
2022-12-19T15:50:02.972Z,1.20
2022-12-19T15:52:33.944Z,1.10
2022-12-19T15:55:00.622Z,1.20
2022-12-19T15:57:44.135Z,1.20
2022-12-19T16:00:20.950Z,1.30
2022-12-19T16:05:34.645Z,1.50
2022-12-19T16:08:01.309Z,1.60
2022-12-19T16:10:28.141Z,1.80
2022-12-19T16:12:57.515Z,2.00
2022-12-19T16:15:33.911Z,2.00
2022-12-19T16:18:03.086Z,1.90
2022-12-19T16:20:35.843Z,1.90
2022-12-19T16:23:02.599Z,1.90
2022-12-19T16:25:35.584Z,1.70
2022-12-19T16:28:31.024Z,1.90
2022-12-19T16:30:59.305Z,1.90
2022-12-19T16:33:30.509Z,1.90
2022-12-19T16:36:06.617Z,2.00
2022-12-19T16:38:33.821Z,2.10
2022-12-19T16:41:01.517Z,2.10
2022-12-19T16:43:36.231Z,2.10
2022-12-19T16:46:05.750Z,2.10
2022-12-19T16:48:35.460Z,2.10
2022-12-19T16:51:02.585Z,2.10
2022-12-19T16:53:29.404Z,2.10
2022-12-19T16:55:57.116Z,2.20
2022-12-19T16:58:26.396Z,2.20
2022-12-19T17:00:55.271Z,2.10
2022-12-19T17:03:41.338Z,2.20
2022-12-19T17:06:16.695Z,2.20
2022-12-19T17:08:43.877Z,2.30
2022-12-19T17:11:36.937Z,2.20
2022-12-19T17:14:08.380Z,2.20
2022-12-19T17:16:35.334Z,2.30
2022-12-19T17:19:02.341Z,2.30
2022-12-19T17:21:29.005Z,2.30
2022-12-19T17:24:01.850Z,2.30
2022-12-19T17:26:28.625Z,2.30
2022-12-19T17:28:55.750Z,2.30
2022-12-19T17:31:26.644Z,2.20
2022-12-19T17:33:58.537Z,2.20
2022-12-19T17:36:36.542Z,4.00
2022-12-19T17:39:20.878Z,2.30
2022-12-19T17:41:51.422Z,2.50
2022-12-19T17:44:18.400Z,2.50
2022-12-19T17:46:48.541Z,2.50
2022-12-19T17:49:33.563Z,2.50
2022-12-19T17:52:00.469Z,2.70
2022-12-19T17:54:27.439Z,2.60
2022-12-19T17:56:55.141Z,2.70
2022-12-19T17:59:22.768Z,2.80
2022-12-19T18:01:49.818Z,2.80
2022-12-19T18:04:21.913Z,2.70
2022-12-19T18:06:51.607Z,2.70
2022-12-19T18:09:23.586Z,2.70
2022-12-19T18:11:51.829Z,2.60
2022-12-19T18:14:19.142Z,2.60
2022-12-19T18:16:47.743Z,2.60
2022-12-19T18:19:23.340Z,2.60
2022-12-19T18:21:50.145Z,2.70
2022-12-19T18:24:17.059Z,2.80
2022-12-19T18:26:44.988Z,2.80
2022-12-19T18:29:12.102Z,2.90
2022-12-19T18:31:41.407Z,2.40
2022-12-19T18:34:23.990Z,2.30
2022-12-19T18:36:52.367Z,2.40
2022-12-19T18:39:26.057Z,2.00
2022-12-19T18:41:53.128Z,2.10
2022-12-19T18:44:20.777Z,2.00
2022-12-19T18:46:50.510Z,2.10
2022-12-19T18:49:17.475Z,2.30
2022-12-19T18:51:45.363Z,2.30
2022-12-19T18:54:20.248Z,2.20
2022-12-19T18:56:47.209Z,2.30
2022-12-19T18:59:14.174Z,2.20
2022-12-19T19:01:49.081Z,2.20
2022-12-19T19:04:18.118Z,2.40
2022-12-19T19:06:50.923Z,2.20
2022-12-19T19:09:18.921Z,2.20
2022-12-19T19:11:45.672Z,2.00
2022-12-19T19:14:12.785Z,1.90
2022-12-19T19:16:40.148Z,1.90
2022-12-19T19:19:10.329Z,1.90
2022-12-19T19:21:38.686Z,1.90
2022-12-19T19:24:15.797Z,1.90
2022-12-19T19:26:42.820Z,1.90
2022-12-19T19:29:09.813Z,1.70
2022-12-19T19:31:40.667Z,1.90
2022-12-19T19:34:48.184Z,1.70
2022-12-19T19:37:15.872Z,2.00
2022-12-19T19:39:42.589Z,2.00
2022-12-19T19:42:09.260Z,2.00
2022-12-19T19:44:36.990Z,2.00
2022-12-19T19:47:03.730Z,1.90
2022-12-19T19:49:30.361Z,2.00
2022-12-19T19:52:02.439Z,1.90
2022-12-19T19:54:30.810Z,2.10
2022-12-19T19:56:59.704Z,2.70
2022-12-19T19:59:30.756Z,2.30
2022-12-19T20:01:57.877Z,2.20
2022-12-19T20:04:24.961Z,2.20
2022-12-19T20:06:51.694Z,2.20
2022-12-19T20:09:18.411Z,2.20
2022-12-19T20:11:45.174Z,1.90
2022-12-19T20:14:11.802Z,2.00
2022-12-19T20:16:49.112Z,2.00
2022-12-19T20:19:15.887Z,2.00
2022-12-19T20:21:45.813Z,1.90
2022-12-19T20:24:12.804Z,1.90
2022-12-19T20:26:44.597Z,1.90
2022-12-19T20:29:14.047Z,1.90
2022-12-19T20:31:41.935Z,1.90
2022-12-19T20:34:08.722Z,2.20
2022-12-19T20:36:35.826Z,1.90
2022-12-19T20:39:02.767Z,2.00
2022-12-19T20:41:36.584Z,1.90
2022-12-19T20:44:03.646Z,2.00
2022-12-19T20:46:30.528Z,2.10
2022-12-19T20:48:57.967Z,2.00
2022-12-19T20:51:24.846Z,2.20
2022-12-19T20:53:54.697Z,2.00
2022-12-19T20:56:23.366Z,2.00
2022-12-19T20:58:50.375Z,2.00
2022-12-19T21:01:24.669Z,1.90
2022-12-19T21:03:52.477Z,2.60
2022-12-19T21:06:21.425Z,1.80
2022-12-19T21:08:48.206Z,1.30
2022-12-19T21:11:17.170Z,1.80
2022-12-19T21:13:44.377Z,1.80
2022-12-19T21:16:17.072Z,2.00
2022-12-19T21:18:45.364Z,1.90
2022-12-19T21:21:19.596Z,1.40
2022-12-19T21:23:46.390Z,1.90
2022-12-19T21:26:13.336Z,1.90
2022-12-19T21:28:40.394Z,2.10
2022-12-19T21:31:16.213Z,1.90
2022-12-19T21:33:44.308Z,1.90
2022-12-19T21:36:14.693Z,2.00
2022-12-19T21:38:41.660Z,2.00
2022-12-19T21:41:08.613Z,1.80
2022-12-19T21:43:36.516Z,1.80
2022-12-19T21:46:11.123Z,1.80
2022-12-19T21:48:43.451Z,1.90
2022-12-19T21:51:11.070Z,2.10
2022-12-19T21:53:38.380Z,1.90
2022-12-19T21:56:28.349Z,1.80
2022-12-19T21:58:57.738Z,2.00
2022-12-19T22:01:25.539Z,2.20
2022-12-19T22:06:27.664Z,1.80
2022-12-19T22:11:23.403Z,1.90
2022-12-19T22:13:52.428Z,2.00
2022-12-19T22:16:21.574Z,1.70
2022-12-19T22:21:20.629Z,1.70
2022-12-19T22:23:47.333Z,2.20
2022-12-19T22:26:21.915Z,2.00
2022-12-19T22:36:28.060Z,1.90
2022-12-19T22:38:56.974Z,2.00
2022-12-19T22:46:26.501Z,2.00
2022-12-19T22:48:55.920Z,2.10
2022-12-19T22:51:22.624Z,2.00
2022-12-19T22:56:22.812Z,2.10
2022-12-19T22:58:51.819Z,2.10
2022-12-19T23:01:22.568Z,2.30
2022-12-19T23:06:18.717Z,2.20
2022-12-19T23:16:14.590Z,2.40
2022-12-19T23:18:41.679Z,2.40
2022-12-19T23:21:17.827Z,2.50
2022-12-19T23:23:46.586Z,2.40
2022-12-19T23:26:25.291Z,2.40
2022-12-19T23:28:58.442Z,2.50
2022-12-19T23:31:27.140Z,2.50
2022-12-19T23:33:54.453Z,3.10
2022-12-19T23:37:00.479Z,3.50
2022-12-19T23:39:11.097Z,3.60
2022-12-19T23:41:37.830Z,3.80
2022-12-19T23:44:04.848Z,4.00
2022-12-19T23:46:31.627Z,4.30
2022-12-19T23:48:58.305Z,4.20
2022-12-19T23:51:27.389Z,4.10
2022-12-19T23:53:55.701Z,4.20
2022-12-19T23:56:27.033Z,4.20
2022-12-19T23:58:54.903Z,4.10
